Besuchen Sie unsere anderen Wetter Stationen:

Template documentation
and downloads

And another site



METAR-Meldungen aus der Umgebung

   
EHVK - Volkel Rnlafb, Netherlands
Entfernung von der Station bis: SW 18 km
Aktualisierung: 20-06-2019 11:26
Stark bewölkt  
Stark bewölkt  
   Wind: SW 27.8 km/h
Wind: SW 27.8 km/h
Temperatur: 20°C
Taupunkt: 14°C
Luftfeuchte: 69%
Luftdruck: 1011 hPa
Bewölkt: Stark bewölkt
Sichtbarkeit: More than 10 km
Bewölkung: Teilweise bewölkt 640.1 m,
Stark bewölkt 731.5 m,
Stark bewölkt 853.4 m
EHVK 200926Z AUTO 22015KT 160V260 9999 SCT021 BKN024 BKN028 20/14 Q1011 WHT 22010KT 9999 SCT022 BKN025
EDLV - Niederrhein, Germany
Entfernung von der Station bis: SO 25 km
Aktualisierung: 20-06-2019 11:20
Stark bewölkt  
Stark bewölkt  
   Wind: SW 18.5 km/h
Wind: SW 18.5 km/h
Temperatur: 19°C
Taupunkt: 14°C
Luftfeuchte: 73%
Luftdruck: 1012 hPa
Bewölkt: Stark bewölkt
Sichtbarkeit: More than 10 km
Bewölkung: Stark bewölkt 701 m
EDLV 200920Z 22010KT 180V260 9999 BKN023 19/14 Q1012
EHDL - Deelen Rnlafb, Netherlands
Entfernung von der Station bis: N 35 km
Aktualisierung: 20-06-2019 11:25
Stark bewölkt  
Stark bewölkt  
   Wind: SW 25.9 km/h
Wind: SW 25.9 km/h
Temperatur: 18°C
Taupunkt: 13°C
Luftfeuchte: 73%
Luftdruck: 1011 hPa
Bewölkt: Stark bewölkt
Sichtbarkeit: More than 10 km
Bewölkung: Teilweise bewölkt 487.7 m,
Teilweise bewölkt 579.1 m,
Stark bewölkt 701 m
EHDL 200925Z AUTO 23014KT 170V310 9999 SCT016 SCT019 BKN023 18/13 Q1011 WHT
EHEH - Eindhoven Rnlafb, Netherlands
Entfernung von der Station bis: SW 48 km
Aktualisierung: 20-06-2019 11:25
Bewölkt  
Bewölkt  
   Wind: SSW 22.2 km/h
Wind: SSW 22.2 km/h
Temperatur: 19°C
Taupunkt: 14°C
Luftfeuchte: 73%
Luftdruck: 1011 hPa
Bewölkt: Bewölkt
Sichtbarkeit: More than 10 km
Bewölkung: Stark bewölkt 579.1 m,
Bewölkt 670.6 m
EHEH 200925Z AUTO 21012KT 200V260 9999 BKN019 OVC022 19/14 Q1011 WHT 23010KT 9999 SCT016 BKN020 BKN025
EHGR - Gilze-Rijen Rnla, Netherlands
Entfernung von der Station bis: WSW 70 km
Aktualisierung: 20-06-2019 11:25
Bewölkt  
Bewölkt  
   Wind: WSW 13 km/h
Wind: WSW 13 km/h
Temperatur: 18°C
Taupunkt: 14°C
Luftfeuchte: 78%
Luftdruck: 1011 hPa
Bewölkt: Bewölkt
Sichtbarkeit: More than 10 km
Bewölkung: leicht bewölkt 640.1 m,
Teilweise bewölkt 762 m,
Bewölkt 883.9 m
EHGR 200925Z AUTO 24007KT 200V270 9999 FEW021 SCT025 OVC029 18/14 Q1011 BLU 23008KT 9999 SCT015 BKN020
EBBL - Kleine-Brogel(Ba, Belgium
Entfernung von der Station bis: SSW 71 km
Aktualisierung: 20-06-2019 10:55
Stark bewölkt  
Stark bewölkt  
   Wind: SW 20.4 km/h
Wind: SW 20.4 km/h
Temperatur: 19°C
Taupunkt: 14°C
Luftfeuchte: 73%
Luftdruck: 1012 hPa
Bewölkt: Stark bewölkt
Sichtbarkeit: More than 10 km
Bewölkung: Teilweise bewölkt 609.6 m,
Stark bewölkt 762 m
EBBL 200855Z 23011KT 9999 SCT020 BKN025 19/14 Q1012 WHT WHT BECMG BLU

Script entwickelt von  Saratoga-weather.org Angepasst für das Template von  Weerstation Leuven

Sie finden unser Wetter-Infos auch auf:

netzwerkwettercom

European Weather Network

WeatherCloud

Weather Underground

AWEKAS

Citizen Weather Observer Program (CWOP)

HAMweather, WeatherForYou, PWS Weather

Von uns verwendete Ausrüstung:

Wetterstation
Davis VP2

Davis VP2